sensor_id;sensor_type;location;lat;lon;timestamp;P1;durP1;ratioP1;P2;durP2;ratioP2
13102;SDS011;52970;46.752;17.108;2023-04-03T00:02:00;4.03;;;3.63;;
13102;SDS011;52970;46.752;17.108;2023-04-03T00:04:25;4.37;;;3.87;;
13102;SDS011;52970;46.752;17.108;2023-04-03T00:06:50;3.73;;;3.43;;
13102;SDS011;52970;46.752;17.108;2023-04-03T00:09:16;4.07;;;3.67;;
13102;SDS011;52970;46.752;17.108;2023-04-03T00:11:41;3.90;;;3.60;;
13102;SDS011;52970;46.752;17.108;2023-04-03T00:14:07;3.93;;;3.63;;
13102;SDS011;52970;46.752;17.108;2023-04-03T00:16:32;5.27;;;3.87;;
13102;SDS011;52970;46.752;17.108;2023-04-03T00:18:57;4.77;;;3.83;;
13102;SDS011;52970;46.752;17.108;2023-04-03T00:21:22;4.10;;;3.80;;
13102;SDS011;52970;46.752;17.108;2023-04-03T00:23:48;3.90;;;3.57;;
13102;SDS011;52970;46.752;17.108;2023-04-03T00:26:13;4.23;;;3.83;;
13102;SDS011;52970;46.752;17.108;2023-04-03T00:28:39;3.83;;;3.53;;
13102;SDS011;52970;46.752;17.108;2023-04-03T00:31:04;4.13;;;3.70;;
13102;SDS011;52970;46.752;17.108;2023-04-03T00:33:30;3.30;;;3.10;;
13102;SDS011;52970;46.752;17.108;2023-04-03T00:35:55;3.80;;;3.50;;
13102;SDS011;52970;46.752;17.108;2023-04-03T00:38:20;4.30;;;3.40;;
13102;SDS011;52970;46.752;17.108;2023-04-03T00:40:46;4.00;;;3.67;;
13102;SDS011;52970;46.752;17.108;2023-04-03T00:43:14;3.90;;;3.60;;
13102;SDS011;52970;46.752;17.108;2023-04-03T00:45:40;3.60;;;3.30;;
13102;SDS011;52970;46.752;17.108;2023-04-03T00:48:07;4.20;;;3.40;;
13102;SDS011;52970;46.752;17.108;2023-04-03T00:50:34;3.80;;;3.50;;
13102;SDS011;52970;46.752;17.108;2023-04-03T00:53:00;3.67;;;3.37;;
13102;SDS011;52970;46.752;17.108;2023-04-03T00:55:25;3.80;;;3.50;;
13102;SDS011;52970;46.752;17.108;2023-04-03T00:57:51;3.80;;;3.43;;
13102;SDS011;52970;46.752;17.108;2023-04-03T01:00:17;3.40;;;3.20;;
13102;SDS011;52970;46.752;17.108;2023-04-03T01:02:43;3.73;;;3.43;;
13102;SDS011;52970;46.752;17.108;2023-04-03T01:05:09;3.67;;;3.37;;
13102;SDS011;52970;46.752;17.108;2023-04-03T01:07:35;3.93;;;3.40;;
13102;SDS011;52970;46.752;17.108;2023-04-03T01:10:05;3.53;;;3.30;;
13102;SDS011;52970;46.752;17.108;2023-04-03T01:12:38;3.43;;;3.13;;
13102;SDS011;52970;46.752;17.108;2023-04-03T01:15:26;3.60;;;3.30;;
13102;SDS011;52970;46.752;17.108;2023-04-03T01:17:50;3.67;;;3.37;;
13102;SDS011;52970;46.752;17.108;2023-04-03T01:25:35;3.90;;;3.60;;
13102;SDS011;52970;46.752;17.108;2023-04-03T01:28:01;3.40;;;3.10;;
13102;SDS011;52970;46.752;17.108;2023-04-03T01:30:30;3.63;;;3.33;;
13102;SDS011;52970;46.752;17.108;2023-04-03T01:32:57;3.80;;;3.40;;
13102;SDS011;52970;46.752;17.108;2023-04-03T01:35:22;3.70;;;3.40;;
13102;SDS011;52970;46.752;17.108;2023-04-03T01:37:47;4.03;;;3.37;;
13102;SDS011;52970;46.752;17.108;2023-04-03T01:40:13;3.90;;;3.60;;
13102;SDS011;52970;46.752;17.108;2023-04-03T01:42:38;5.43;;;3.37;;
13102;SDS011;52970;46.752;17.108;2023-04-03T01:45:03;3.80;;;3.50;;
13102;SDS011;52970;46.752;17.108;2023-04-03T01:47:29;3.60;;;3.30;;
13102;SDS011;52970;46.752;17.108;2023-04-03T01:49:54;4.13;;;3.80;;
13102;SDS011;52970;46.752;17.108;2023-04-03T01:52:19;5.73;;;4.20;;
13102;SDS011;52970;46.752;17.108;2023-04-03T01:54:44;14.80;;;7.57;;
13102;SDS011;52970;46.752;17.108;2023-04-03T01:57:10;13.40;;;8.00;;
13102;SDS011;52970;46.752;17.108;2023-04-03T01:59:35;17.70;;;8.70;;
13102;SDS011;52970;46.752;17.108;2023-04-03T02:02:00;30.13;;;13.17;;
13102;SDS011;52970;46.752;17.108;2023-04-03T02:04:26;29.67;;;12.00;;
13102;SDS011;52970;46.752;17.108;2023-04-03T02:06:51;15.50;;;8.30;;
13102;SDS011;52970;46.752;17.108;2023-04-03T02:09:16;28.47;;;13.30;;
13102;SDS011;52970;46.752;17.108;2023-04-03T02:11:42;22.33;;;10.77;;
13102;SDS011;52970;46.752;17.108;2023-04-03T02:14:07;20.97;;;9.83;;
13102;SDS011;52970;46.752;17.108;2023-04-03T02:16:32;16.87;;;8.77;;
13102;SDS011;52970;46.752;17.108;2023-04-03T02:18:58;43.13;;;18.13;;
13102;SDS011;52970;46.752;17.108;2023-04-03T02:21:23;23.97;;;11.00;;
13102;SDS011;52970;46.752;17.108;2023-04-03T02:23:48;13.10;;;7.60;;
13102;SDS011;52970;46.752;17.108;2023-04-03T02:26:15;7.87;;;5.80;;
13102;SDS011;52970;46.752;17.108;2023-04-03T02:28:40;19.40;;;10.73;;
13102;SDS011;52970;46.752;17.108;2023-04-03T02:31:09;24.67;;;13.10;;
13102;SDS011;52970;46.752;17.108;2023-04-03T02:33:35;17.70;;;10.63;;
13102;SDS011;52970;46.752;17.108;2023-04-03T02:36:04;34.13;;;15.67;;
13102;SDS011;52970;46.752;17.108;2023-04-03T02:38:30;51.17;;;22.93;;
13102;SDS011;52970;46.752;17.108;2023-04-03T02:41:05;23.03;;;11.03;;
13102;SDS011;52970;46.752;17.108;2023-04-03T02:43:31;30.87;;;15.37;;
13102;SDS011;52970;46.752;17.108;2023-04-03T02:45:56;152.83;;;44.63;;
13102;SDS011;52970;46.752;17.108;2023-04-03T02:48:22;116.70;;;36.43;;
13102;SDS011;52970;46.752;17.108;2023-04-03T02:50:48;141.77;;;44.53;;
13102;SDS011;52970;46.752;17.108;2023-04-03T02:53:13;99.47;;;33.60;;
13102;SDS011;52970;46.752;17.108;2023-04-03T02:55:38;174.67;;;58.57;;
13102;SDS011;52970;46.752;17.108;2023-04-03T02:58:03;70.97;;;24.77;;
13102;SDS011;52970;46.752;17.108;2023-04-03T03:00:29;137.80;;;45.90;;
13102;SDS011;52970;46.752;17.108;2023-04-03T03:02:54;59.70;;;23.50;;
13102;SDS011;52970;46.752;17.108;2023-04-03T03:05:19;35.83;;;14.93;;
13102;SDS011;52970;46.752;17.108;2023-04-03T03:07:45;86.60;;;27.23;;
13102;SDS011;52970;46.752;17.108;2023-04-03T03:10:10;38.87;;;16.93;;
13102;SDS011;52970;46.752;17.108;2023-04-03T03:12:35;193.30;;;64.23;;
13102;SDS011;52970;46.752;17.108;2023-04-03T03:15:00;152.10;;;48.30;;
13102;SDS011;52970;46.752;17.108;2023-04-03T03:17:26;56.23;;;23.20;;
13102;SDS011;52970;46.752;17.108;2023-04-03T03:19:51;38.97;;;15.87;;
13102;SDS011;52970;46.752;17.108;2023-04-03T03:22:16;32.50;;;14.53;;
13102;SDS011;52970;46.752;17.108;2023-04-03T03:24:41;30.20;;;15.37;;
13102;SDS011;52970;46.752;17.108;2023-04-03T03:27:07;48.93;;;19.83;;
13102;SDS011;52970;46.752;17.108;2023-04-03T03:29:32;29.53;;;13.37;;
13102;SDS011;52970;46.752;17.108;2023-04-03T03:31:57;38.07;;;18.80;;
13102;SDS011;52970;46.752;17.108;2023-04-03T03:34:22;14.87;;;8.23;;
13102;SDS011;52970;46.752;17.108;2023-04-03T03:36:48;10.20;;;7.83;;
13102;SDS011;52970;46.752;17.108;2023-04-03T03:39:13;10.73;;;7.97;;
13102;SDS011;52970;46.752;17.108;2023-04-03T03:41:38;11.17;;;9.10;;
13102;SDS011;52970;46.752;17.108;2023-04-03T03:44:03;7.77;;;6.37;;
13102;SDS011;52970;46.752;17.108;2023-04-03T03:46:29;5.27;;;4.53;;
13102;SDS011;52970;46.752;17.108;2023-04-03T03:48:54;5.30;;;4.90;;
13102;SDS011;52970;46.752;17.108;2023-04-03T03:51:20;4.30;;;3.93;;
13102;SDS011;52970;46.752;17.108;2023-04-03T03:53:45;4.50;;;4.10;;
13102;SDS011;52970;46.752;17.108;2023-04-03T03:56:10;4.53;;;4.13;;
13102;SDS011;52970;46.752;17.108;2023-04-03T03:58:36;4.43;;;4.03;;
13102;SDS011;52970;46.752;17.108;2023-04-03T04:01:02;5.00;;;4.50;;
13102;SDS011;52970;46.752;17.108;2023-04-03T04:03:27;4.50;;;4.07;;
13102;SDS011;52970;46.752;17.108;2023-04-03T04:05:53;3.90;;;3.60;;
13102;SDS011;52970;46.752;17.108;2023-04-03T04:08:18;4.50;;;4.10;;
13102;SDS011;52970;46.752;17.108;2023-04-03T04:10:43;3.93;;;3.53;;
13102;SDS011;52970;46.752;17.108;2023-04-03T04:13:08;3.60;;;3.30;;
13102;SDS011;52970;46.752;17.108;2023-04-03T04:15:34;5.73;;;3.70;;
13102;SDS011;52970;46.752;17.108;2023-04-03T04:17:59;4.20;;;3.90;;
13102;SDS011;52970;46.752;17.108;2023-04-03T04:20:24;4.10;;;3.70;;
13102;SDS011;52970;46.752;17.108;2023-04-03T04:22:50;3.70;;;3.40;;
13102;SDS011;52970;46.752;17.108;2023-04-03T04:25:15;4.17;;;3.83;;
13102;SDS011;52970;46.752;17.108;2023-04-03T04:27:40;4.13;;;3.73;;
13102;SDS011;52970;46.752;17.108;2023-04-03T04:30:06;4.43;;;4.10;;
13102;SDS011;52970;46.752;17.108;2023-04-03T04:32:31;5.20;;;4.30;;
13102;SDS011;52970;46.752;17.108;2023-04-03T04:34:57;4.73;;;4.00;;
13102;SDS011;52970;46.752;17.108;2023-04-03T04:37:22;4.97;;;4.57;;
13102;SDS011;52970;46.752;17.108;2023-04-03T04:39:47;5.00;;;4.30;;
13102;SDS011;52970;46.752;17.108;2023-04-03T04:42:13;4.57;;;4.17;;
13102;SDS011;52970;46.752;17.108;2023-04-03T04:44:38;5.23;;;4.73;;
13102;SDS011;52970;46.752;17.108;2023-04-03T04:47:04;5.07;;;4.57;;
13102;SDS011;52970;46.752;17.108;2023-04-03T04:49:29;6.93;;;6.20;;
13102;SDS011;52970;46.752;17.108;2023-04-03T04:51:54;8.20;;;7.30;;
13102;SDS011;52970;46.752;17.108;2023-04-03T04:54:20;8.17;;;6.83;;
13102;SDS011;52970;46.752;17.108;2023-04-03T04:56:45;5.47;;;4.93;;
13102;SDS011;52970;46.752;17.108;2023-04-03T04:59:10;39.67;;;22.63;;
13102;SDS011;52970;46.752;17.108;2023-04-03T05:01:36;56.57;;;32.73;;
13102;SDS011;52970;46.752;17.108;2023-04-03T05:04:01;62.30;;;35.43;;
13102;SDS011;52970;46.752;17.108;2023-04-03T05:06:26;23.43;;;15.93;;
13102;SDS011;52970;46.752;17.108;2023-04-03T05:08:52;35.90;;;23.30;;
13102;SDS011;52970;46.752;17.108;2023-04-03T05:11:17;13.17;;;10.13;;
13102;SDS011;52970;46.752;17.108;2023-04-03T05:13:42;9.63;;;7.63;;
13102;SDS011;52970;46.752;17.108;2023-04-03T05:16:07;6.87;;;6.13;;
13102;SDS011;52970;46.752;17.108;2023-04-03T05:18:33;10.33;;;9.13;;
13102;SDS011;52970;46.752;17.108;2023-04-03T05:20:58;10.57;;;9.47;;
13102;SDS011;52970;46.752;17.108;2023-04-03T05:23:23;8.77;;;7.30;;
13102;SDS011;52970;46.752;17.108;2023-04-03T05:25:48;8.20;;;5.53;;
13102;SDS011;52970;46.752;17.108;2023-04-03T05:28:14;5.97;;;5.27;;
13102;SDS011;52970;46.752;17.108;2023-04-03T05:30:40;7.37;;;6.20;;
13102;SDS011;52970;46.752;17.108;2023-04-03T05:33:05;6.13;;;5.40;;
13102;SDS011;52970;46.752;17.108;2023-04-03T05:35:31;5.60;;;5.07;;
13102;SDS011;52970;46.752;17.108;2023-04-03T05:37:56;6.43;;;4.77;;
13102;SDS011;52970;46.752;17.108;2023-04-03T05:40:21;6.30;;;5.70;;
13102;SDS011;52970;46.752;17.108;2023-04-03T05:42:47;6.60;;;5.50;;
13102;SDS011;52970;46.752;17.108;2023-04-03T05:45:12;6.27;;;5.63;;
13102;SDS011;52970;46.752;17.108;2023-04-03T05:47:37;5.30;;;4.80;;
13102;SDS011;52970;46.752;17.108;2023-04-03T05:50:03;5.40;;;4.90;;
13102;SDS011;52970;46.752;17.108;2023-04-03T05:52:37;5.00;;;4.50;;
13102;SDS011;52970;46.752;17.108;2023-04-03T05:55:05;4.80;;;4.30;;
13102;SDS011;52970;46.752;17.108;2023-04-03T05:57:31;4.73;;;4.33;;
13102;SDS011;52970;46.752;17.108;2023-04-03T05:59:56;4.90;;;4.50;;
13102;SDS011;52970;46.752;17.108;2023-04-03T06:02:22;5.20;;;4.70;;
13102;SDS011;52970;46.752;17.108;2023-04-03T06:04:48;4.90;;;4.30;;
13102;SDS011;52970;46.752;17.108;2023-04-03T06:07:14;5.57;;;5.00;;
13102;SDS011;52970;46.752;17.108;2023-04-03T06:09:40;6.13;;;5.53;;
13102;SDS011;52970;46.752;17.108;2023-04-03T06:12:06;7.60;;;6.83;;
13102;SDS011;52970;46.752;17.108;2023-04-03T06:14:31;11.53;;;9.40;;
13102;SDS011;52970;46.752;17.108;2023-04-03T06:16:56;6.87;;;6.10;;
13102;SDS011;52970;46.752;17.108;2023-04-03T06:19:22;6.10;;;5.50;;
13102;SDS011;52970;46.752;17.108;2023-04-03T06:21:47;6.27;;;5.67;;
13102;SDS011;52970;46.752;17.108;2023-04-03T06:24:14;6.27;;;5.07;;
13102;SDS011;52970;46.752;17.108;2023-04-03T06:26:40;7.00;;;5.30;;
13102;SDS011;52970;46.752;17.108;2023-04-03T06:29:05;7.60;;;6.03;;
13102;SDS011;52970;46.752;17.108;2023-04-03T06:31:30;7.13;;;5.50;;
13102;SDS011;52970;46.752;17.108;2023-04-03T06:33:56;5.77;;;5.27;;
13102;SDS011;52970;46.752;17.108;2023-04-03T06:36:21;7.37;;;5.50;;
13102;SDS011;52970;46.752;17.108;2023-04-03T06:38:47;5.70;;;5.10;;
13102;SDS011;52970;46.752;17.108;2023-04-03T06:41:12;6.83;;;5.60;;
13102;SDS011;52970;46.752;17.108;2023-04-03T06:43:37;5.80;;;5.27;;
13102;SDS011;52970;46.752;17.108;2023-04-03T06:46:03;5.33;;;4.90;;
13102;SDS011;52970;46.752;17.108;2023-04-03T06:48:28;5.10;;;4.60;;
13102;SDS011;52970;46.752;17.108;2023-04-03T06:50:54;5.20;;;4.70;;
13102;SDS011;52970;46.752;17.108;2023-04-03T06:53:20;6.97;;;5.27;;
13102;SDS011;52970;46.752;17.108;2023-04-03T06:55:45;6.83;;;5.50;;
13102;SDS011;52970;46.752;17.108;2023-04-03T06:58:11;5.67;;;5.17;;
13102;SDS011;52970;46.752;17.108;2023-04-03T07:00:37;6.03;;;5.43;;
13102;SDS011;52970;46.752;17.108;2023-04-03T07:03:02;5.63;;;5.13;;
13102;SDS011;52970;46.752;17.108;2023-04-03T07:05:27;5.50;;;5.00;;
13102;SDS011;52970;46.752;17.108;2023-04-03T07:07:53;8.43;;;6.07;;
13102;SDS011;52970;46.752;17.108;2023-04-03T07:10:18;6.10;;;5.30;;
13102;SDS011;52970;46.752;17.108;2023-04-03T07:12:43;5.83;;;5.33;;
13102;SDS011;52970;46.752;17.108;2023-04-03T07:15:10;5.93;;;5.20;;
13102;SDS011;52970;46.752;17.108;2023-04-03T07:17:37;6.73;;;5.20;;
13102;SDS011;52970;46.752;17.108;2023-04-03T07:20:03;9.47;;;7.67;;
13102;SDS011;52970;46.752;17.108;2023-04-03T07:22:29;9.03;;;8.13;;
13102;SDS011;52970;46.752;17.108;2023-04-03T07:24:54;6.40;;;5.90;;
13102;SDS011;52970;46.752;17.108;2023-04-03T07:27:20;5.00;;;4.50;;
13102;SDS011;52970;46.752;17.108;2023-04-03T07:29:45;6.40;;;5.80;;
13102;SDS011;52970;46.752;17.108;2023-04-03T07:32:13;4.90;;;4.40;;
13102;SDS011;52970;46.752;17.108;2023-04-03T07:34:38;12.30;;;8.33;;
13102;SDS011;52970;46.752;17.108;2023-04-03T07:37:03;8.80;;;7.77;;
13102;SDS011;52970;46.752;17.108;2023-04-03T07:39:29;12.47;;;9.50;;
13102;SDS011;52970;46.752;17.108;2023-04-03T07:41:55;9.73;;;7.90;;
13102;SDS011;52970;46.752;17.108;2023-04-03T07:44:23;6.53;;;5.70;;
13102;SDS011;52970;46.752;17.108;2023-04-03T07:46:48;6.93;;;6.20;;
13102;SDS011;52970;46.752;17.108;2023-04-03T07:49:15;5.73;;;5.23;;
13102;SDS011;52970;46.752;17.108;2023-04-03T07:51:42;5.67;;;4.83;;
13102;SDS011;52970;46.752;17.108;2023-04-03T07:54:08;5.83;;;5.33;;
13102;SDS011;52970;46.752;17.108;2023-04-03T07:56:33;6.03;;;5.43;;
13102;SDS011;52970;46.752;17.108;2023-04-03T07:58:58;5.57;;;5.07;;
13102;SDS011;52970;46.752;17.108;2023-04-03T08:01:24;4.77;;;4.37;;
13102;SDS011;52970;46.752;17.108;2023-04-03T08:03:49;5.72;;;4.65;;
13102;SDS011;52970;46.752;17.108;2023-04-03T08:06:15;6.73;;;6.10;;
13102;SDS011;52970;46.752;17.108;2023-04-03T08:08:41;5.50;;;4.93;;
13102;SDS011;52970;46.752;17.108;2023-04-03T08:11:06;4.53;;;4.13;;
13102;SDS011;52970;46.752;17.108;2023-04-03T08:13:33;5.43;;;5.00;;
13102;SDS011;52970;46.752;17.108;2023-04-03T08:16:06;5.40;;;4.90;;
13102;SDS011;52970;46.752;17.108;2023-04-03T08:18:32;5.60;;;4.40;;
13102;SDS011;52970;46.752;17.108;2023-04-03T08:20:57;5.27;;;4.50;;
13102;SDS011;52970;46.752;17.108;2023-04-03T08:23:22;4.67;;;4.27;;
13102;SDS011;52970;46.752;17.108;2023-04-03T08:25:48;4.33;;;3.80;;
13102;SDS011;52970;46.752;17.108;2023-04-03T08:28:13;4.60;;;4.20;;
13102;SDS011;52970;46.752;17.108;2023-04-03T08:30:39;4.30;;;3.97;;
13102;SDS011;52970;46.752;17.108;2023-04-03T08:33:05;4.20;;;3.80;;
13102;SDS011;52970;46.752;17.108;2023-04-03T08:35:31;4.20;;;3.80;;
13102;SDS011;52970;46.752;17.108;2023-04-03T08:37:56;4.03;;;3.73;;
13102;SDS011;52970;46.752;17.108;2023-04-03T08:40:21;4.23;;;3.90;;
13102;SDS011;52970;46.752;17.108;2023-04-03T08:50:21;6.43;;;3.90;;
13102;SDS011;52970;46.752;17.108;2023-04-03T08:52:51;5.50;;;4.17;;
13102;SDS011;52970;46.752;17.108;2023-04-03T08:55:21;4.55;;;4.15;;
13102;SDS011;52970;46.752;17.108;2023-04-03T08:57:48;5.37;;;4.00;;
13102;SDS011;52970;46.752;17.108;2023-04-03T09:00:19;4.57;;;4.05;;
13102;SDS011;52970;46.752;17.108;2023-04-03T09:02:49;5.40;;;4.28;;
13102;SDS011;52970;46.752;17.108;2023-04-03T09:05:17;5.00;;;4.60;;
13102;SDS011;52970;46.752;17.108;2023-04-03T09:07:44;5.10;;;4.63;;
13102;SDS011;52970;46.752;17.108;2023-04-03T09:10:11;4.90;;;4.50;;
13102;SDS011;52970;46.752;17.108;2023-04-03T09:12:49;5.55;;;5.05;;
13102;SDS011;52970;46.752;17.108;2023-04-03T09:17:42;5.80;;;5.25;;
13102;SDS011;52970;46.752;17.108;2023-04-03T09:22:37;4.95;;;4.45;;
13102;SDS011;52970;46.752;17.108;2023-04-03T09:25:06;5.30;;;4.68;;
13102;SDS011;52970;46.752;17.108;2023-04-03T09:27:33;4.88;;;4.47;;
13102;SDS011;52970;46.752;17.108;2023-04-03T09:29:58;4.20;;;3.90;;
13102;SDS011;52970;46.752;17.108;2023-04-03T09:32:27;5.05;;;4.38;;
13102;SDS011;52970;46.752;17.108;2023-04-03T09:34:53;4.60;;;4.22;;
13102;SDS011;52970;46.752;17.108;2023-04-03T09:37:42;4.10;;;3.75;;
13102;SDS011;52970;46.752;17.108;2023-04-03T09:40:06;4.72;;;4.07;;
13102;SDS011;52970;46.752;17.108;2023-04-03T09:42:54;4.32;;;3.70;;
13102;SDS011;52970;46.752;17.108;2023-04-03T09:45:25;5.05;;;3.80;;
13102;SDS011;52970;46.752;17.108;2023-04-03T09:50:33;4.38;;;3.28;;
13102;SDS011;52970;46.752;17.108;2023-04-03T09:53:01;3.40;;;3.10;;
13102;SDS011;52970;46.752;17.108;2023-04-03T09:55:29;4.45;;;3.53;;
13102;SDS011;52970;46.752;17.108;2023-04-03T09:57:58;3.25;;;2.95;;
13102;SDS011;52970;46.752;17.108;2023-04-03T10:00:30;3.67;;;3.30;;
13102;SDS011;52970;46.752;17.108;2023-04-03T10:02:57;3.30;;;3.00;;
13102;SDS011;52970;46.752;17.108;2023-04-03T10:05:31;3.22;;;2.92;;
13102;SDS011;52970;46.752;17.108;2023-04-03T10:08:15;3.47;;;3.17;;
13102;SDS011;52970;46.752;17.108;2023-04-03T10:10:48;11.10;;;8.38;;
13102;SDS011;52970;46.752;17.108;2023-04-03T10:13:15;4.90;;;4.45;;
13102;SDS011;52970;46.752;17.108;2023-04-03T10:15:46;4.45;;;4.10;;
13102;SDS011;52970;46.752;17.108;2023-04-03T10:24:05;7.80;;;7.10;;
13102;SDS011;52970;46.752;17.108;2023-04-03T10:32:35;5.60;;;5.10;;
13102;SDS011;52970;46.752;17.108;2023-04-03T10:34:39;4.10;;;3.70;;
13102;SDS011;52970;46.752;17.108;2023-04-03T10:40:01;4.43;;;4.05;;
13102;SDS011;52970;46.752;17.108;2023-04-03T10:52:56;5.53;;;4.50;;
13102;SDS011;52970;46.752;17.108;2023-04-03T10:57:51;5.65;;;4.47;;
13102;SDS011;52970;46.752;17.108;2023-04-03T11:00:19;4.80;;;4.30;;
13102;SDS011;52970;46.752;17.108;2023-04-03T11:05:17;9.02;;;4.10;;
13102;SDS011;52970;46.752;17.108;2023-04-03T11:07:45;4.32;;;3.92;;
13102;SDS011;52970;46.752;17.108;2023-04-03T11:12:42;4.75;;;4.25;;
13102;SDS011;52970;46.752;17.108;2023-04-03T11:15:15;5.20;;;4.20;;
13102;SDS011;52970;46.752;17.108;2023-04-03T11:17:43;4.85;;;4.32;;
13102;SDS011;52970;46.752;17.108;2023-04-03T11:20:18;4.57;;;3.90;;
13102;SDS011;52970;46.752;17.108;2023-04-03T11:22:47;7.80;;;4.40;;
13102;SDS011;52970;46.752;17.108;2023-04-03T11:25:15;5.80;;;4.30;;
13102;SDS011;52970;46.752;17.108;2023-04-03T11:27:58;7.20;;;5.13;;
13102;SDS011;52970;46.752;17.108;2023-04-03T11:35:52;15.38;;;10.63;;
13102;SDS011;52970;46.752;17.108;2023-04-03T11:38:35;6.28;;;5.00;;
13102;SDS011;52970;46.752;17.108;2023-04-03T11:41:04;5.53;;;4.47;;
13102;SDS011;52970;46.752;17.108;2023-04-03T11:43:32;4.50;;;4.07;;
13102;SDS011;52970;46.752;17.108;2023-04-03T11:51:02;4.90;;;4.03;;
13102;SDS011;52970;46.752;17.108;2023-04-03T11:53:46;4.22;;;3.72;;
13102;SDS011;52970;46.752;17.108;2023-04-03T12:04:07;6.68;;;5.80;;
13102;SDS011;52970;46.752;17.108;2023-04-03T12:08:58;8.75;;;5.90;;
13102;SDS011;52970;46.752;17.108;2023-04-03T12:11:25;15.30;;;10.70;;
13102;SDS011;52970;46.752;17.108;2023-04-03T12:18:53;10.60;;;8.20;;
13102;SDS011;52970;46.752;17.108;2023-04-03T12:24:15;12.35;;;9.63;;
13102;SDS011;52970;46.752;17.108;2023-04-03T12:27:01;10.00;;;6.97;;
13102;SDS011;52970;46.752;17.108;2023-04-03T12:31:56;6.53;;;5.25;;
13102;SDS011;52970;46.752;17.108;2023-04-03T12:34:26;8.90;;;6.80;;
13102;SDS011;52970;46.752;17.108;2023-04-03T12:36:58;7.97;;;6.43;;
13102;SDS011;52970;46.752;17.108;2023-04-03T12:41:52;8.73;;;7.82;;
13102;SDS011;52970;46.752;17.108;2023-04-03T12:44:24;6.50;;;5.85;;
13102;SDS011;52970;46.752;17.108;2023-04-03T12:46:52;9.45;;;7.50;;
13102;SDS011;52970;46.752;17.108;2023-04-03T12:49:22;11.20;;;8.73;;
13102;SDS011;52970;46.752;17.108;2023-04-03T12:51:49;23.63;;;16.45;;
13102;SDS011;52970;46.752;17.108;2023-04-03T12:54:16;9.50;;;7.93;;
13102;SDS011;52970;46.752;17.108;2023-04-03T12:56:41;5.43;;;4.63;;
13102;SDS011;52970;46.752;17.108;2023-04-03T12:59:18;4.97;;;4.57;;
13102;SDS011;52970;46.752;17.108;2023-04-03T13:01:43;5.70;;;5.20;;
13102;SDS011;52970;46.752;17.108;2023-04-03T13:04:17;5.53;;;4.97;;
13102;SDS011;52970;46.752;17.108;2023-04-03T13:06:43;6.00;;;4.68;;
13102;SDS011;52970;46.752;17.108;2023-04-03T13:12:07;4.60;;;4.20;;
13102;SDS011;52970;46.752;17.108;2023-04-03T13:14:35;5.95;;;5.10;;
13102;SDS011;52970;46.752;17.108;2023-04-03T13:17:19;7.22;;;4.65;;
13102;SDS011;52970;46.752;17.108;2023-04-03T13:19:45;4.90;;;4.32;;
13102;SDS011;52970;46.752;17.108;2023-04-03T13:22:32;5.93;;;4.38;;
13102;SDS011;52970;46.752;17.108;2023-04-03T13:24:58;6.60;;;4.95;;
13102;SDS011;52970;46.752;17.108;2023-04-03T13:27:26;5.30;;;4.70;;
13102;SDS011;52970;46.752;17.108;2023-04-03T13:29:52;5.78;;;5.28;;
13102;SDS011;52970;46.752;17.108;2023-04-03T13:32:22;4.82;;;3.78;;
13102;SDS011;52970;46.752;17.108;2023-04-03T13:34:47;7.13;;;4.85;;
13102;SDS011;52970;46.752;17.108;2023-04-03T13:37:23;6.95;;;3.88;;
13102;SDS011;52970;46.752;17.108;2023-04-03T13:42:24;4.63;;;3.70;;
13102;SDS011;52970;46.752;17.108;2023-04-03T13:45:06;10.80;;;4.07;;
13102;SDS011;52970;46.752;17.108;2023-04-03T13:47:37;4.50;;;3.70;;
13102;SDS011;52970;46.752;17.108;2023-04-03T13:50:04;4.47;;;3.85;;
13102;SDS011;52970;46.752;17.108;2023-04-03T13:58:02;6.10;;;4.05;;
13102;SDS011;52970;46.752;17.108;2023-04-03T14:00:29;4.88;;;4.03;;
13102;SDS011;52970;46.752;17.108;2023-04-03T14:02:56;5.68;;;3.83;;
13102;SDS011;52970;46.752;17.108;2023-04-03T14:05:22;4.35;;;3.72;;
13102;SDS011;52970;46.752;17.108;2023-04-03T14:07:48;4.93;;;3.55;;
13102;SDS011;52970;46.752;17.108;2023-04-03T14:10:13;5.03;;;4.07;;
13102;SDS011;52970;46.752;17.108;2023-04-03T14:12:39;6.70;;;4.35;;
13102;SDS011;52970;46.752;17.108;2023-04-03T14:15:27;5.55;;;4.43;;
13102;SDS011;52970;46.752;17.108;2023-04-03T14:17:51;7.45;;;4.50;;
13102;SDS011;52970;46.752;17.108;2023-04-03T14:20:18;10.00;;;5.18;;
13102;SDS011;52970;46.752;17.108;2023-04-03T14:22:43;6.43;;;4.20;;
13102;SDS011;52970;46.752;17.108;2023-04-03T14:25:09;7.00;;;4.03;;
13102;SDS011;52970;46.752;17.108;2023-04-03T14:27:36;6.47;;;4.32;;
13102;SDS011;52970;46.752;17.108;2023-04-03T14:30:03;4.72;;;4.35;;
13102;SDS011;52970;46.752;17.108;2023-04-03T14:32:28;3.83;;;3.42;;
13102;SDS011;52970;46.752;17.108;2023-04-03T14:34:54;5.85;;;4.70;;
13102;SDS011;52970;46.752;17.108;2023-04-03T14:37:25;6.18;;;5.55;;
13102;SDS011;52970;46.752;17.108;2023-04-03T14:39:52;6.38;;;5.40;;
13102;SDS011;52970;46.752;17.108;2023-04-03T14:42:22;8.15;;;6.18;;
13102;SDS011;52970;46.752;17.108;2023-04-03T14:44:48;4.82;;;4.28;;
13102;SDS011;52970;46.752;17.108;2023-04-03T14:47:15;6.10;;;4.90;;
13102;SDS011;52970;46.752;17.108;2023-04-03T14:49:41;5.65;;;4.22;;
13102;SDS011;52970;46.752;17.108;2023-04-03T14:52:06;4.53;;;3.63;;
13102;SDS011;52970;46.752;17.108;2023-04-03T14:54:40;4.45;;;4.00;;
13102;SDS011;52970;46.752;17.108;2023-04-03T14:57:08;5.15;;;4.05;;
13102;SDS011;52970;46.752;17.108;2023-04-03T14:59:34;8.23;;;5.10;;
13102;SDS011;52970;46.752;17.108;2023-04-03T15:01:59;9.98;;;8.35;;
13102;SDS011;52970;46.752;17.108;2023-04-03T15:04:25;6.55;;;5.57;;
13102;SDS011;52970;46.752;17.108;2023-04-03T15:06:50;5.70;;;5.18;;
13102;SDS011;52970;46.752;17.108;2023-04-03T15:09:25;5.97;;;4.93;;
13102;SDS011;52970;46.752;17.108;2023-04-03T15:11:52;5.43;;;4.93;;
13102;SDS011;52970;46.752;17.108;2023-04-03T15:14:18;6.65;;;4.55;;
13102;SDS011;52970;46.752;17.108;2023-04-03T15:16:43;7.15;;;4.75;;
13102;SDS011;52970;46.752;17.108;2023-04-03T15:19:09;4.95;;;3.85;;
13102;SDS011;52970;46.752;17.108;2023-04-03T15:21:35;4.85;;;3.92;;
13102;SDS011;52970;46.752;17.108;2023-04-03T15:24:00;5.07;;;4.32;;
13102;SDS011;52970;46.752;17.108;2023-04-03T15:26:26;6.10;;;4.43;;
13102;SDS011;52970;46.752;17.108;2023-04-03T15:28:51;9.13;;;5.72;;
13102;SDS011;52970;46.752;17.108;2023-04-03T15:31:16;7.07;;;5.70;;
13102;SDS011;52970;46.752;17.108;2023-04-03T15:33:42;10.20;;;6.80;;
13102;SDS011;52970;46.752;17.108;2023-04-03T15:36:07;8.00;;;6.55;;
13102;SDS011;52970;46.752;17.108;2023-04-03T15:38:33;8.55;;;5.45;;
13102;SDS011;52970;46.752;17.108;2023-04-03T15:40:58;9.73;;;7.53;;
13102;SDS011;52970;46.752;17.108;2023-04-03T15:43:23;13.85;;;8.40;;
13102;SDS011;52970;46.752;17.108;2023-04-03T15:45:48;9.77;;;7.55;;
13102;SDS011;52970;46.752;17.108;2023-04-03T15:48:14;6.95;;;5.45;;
13102;SDS011;52970;46.752;17.108;2023-04-03T15:50:40;10.02;;;6.95;;
13102;SDS011;52970;46.752;17.108;2023-04-03T15:53:05;7.10;;;5.95;;
13102;SDS011;52970;46.752;17.108;2023-04-03T15:55:32;9.75;;;6.57;;
13102;SDS011;52970;46.752;17.108;2023-04-03T15:57:58;9.75;;;6.93;;
13102;SDS011;52970;46.752;17.108;2023-04-03T16:00:24;7.85;;;6.20;;
13102;SDS011;52970;46.752;17.108;2023-04-03T16:02:53;8.25;;;6.47;;
13102;SDS011;52970;46.752;17.108;2023-04-03T16:05:20;8.43;;;5.97;;
13102;SDS011;52970;46.752;17.108;2023-04-03T16:07:45;8.57;;;7.22;;